Time;durP1;ratioP1;P1;durP2;ratioP2;P2;SDS_P1;SDS_P2;PMS_P1;PMS_P2;Temp;Humidity;BMP_temperature;BMP_pressure;BME280_temperature;BME280_humidity;BME280_pressure;Samples;Min_cycle;Max_cycle;Signal;HPM_P1;HPM_P2
2021/07/12 00:00:25;;;;;;;1.98;1.27;;;;;;;;;;5075335;28;20052;-70
2021/07/12 00:02:53;;;;;;;2.92;1.40;;;;;;;;;;5075891;28;20056;-70
2021/07/12 00:05:20;;;;;;;3.38;1.50;;;;;;;;;;5075066;28;20044;-70
2021/07/12 00:07:48;;;;;;;1.58;1.15;;;;;;;;;;5075662;28;20049;-70
2021/07/12 00:10:16;;;;;;;2.83;1.40;;;;;;;;;;5075490;28;20083;-70
2021/07/12 00:12:45;;;;;;;2.67;1.60;;;;;;;;;;5075562;28;20059;-70
2021/07/12 00:15:13;;;;;;;2.58;1.42;;;;;;;;;;5075333;28;20045;-70
2021/07/12 00:17:39;;;;;;;4.50;1.83;;;;;;;;;;5075164;28;20056;-70
2021/07/12 00:20:09;;;;;;;3.13;1.58;;;;;;;;;;5075429;28;20469;-70
2021/07/12 00:22:36;;;;;;;3.10;1.52;;;;;;;;;;5075687;28;20385;-70
2021/07/12 00:25:05;;;;;;;3.83;1.45;;;;;;;;;;5075815;28;20045;-71
2021/07/12 00:27:32;;;;;;;4.25;1.42;;;;;;;;;;5075222;28;20056;-70
2021/07/12 00:29:58;;;;;;;2.47;1.30;;;;;;;;;;5071659;28;20401;-71
2021/07/12 00:32:25;;;;;;;2.30;1.20;;;;;;;;;;5074933;28;20491;-71
2021/07/12 00:34:51;;;;;;;4.03;1.50;;;;;;;;;;5057690;28;20068;-71
2021/07/12 00:37:18;;;;;;;2.65;1.77;;;;;;;;;;5074055;28;20059;-70
2021/07/12 00:39:44;;;;;;;3.08;1.42;;;;;;;;;;5074746;28;20053;-70
2021/07/12 00:42:12;;;;;;;2.50;1.60;;;;;;;;;;5075325;28;20500;-71
2021/07/12 00:44:39;;;;;;;2.50;1.60;;;;;;;;;;5066734;28;20071;-70
2021/07/12 00:47:07;;;;;;;3.08;1.48;;;;;;;;;;5054586;28;20048;-70
2021/07/12 00:49:34;;;;;;;3.13;1.50;;;;;;;;;;5058942;28;20049;-70
2021/07/12 00:52:00;;;;;;;2.72;1.60;;;;;;;;;;5074863;28;20484;-70
2021/07/12 00:54:28;;;;;;;2.95;1.38;;;;;;;;;;5074825;28;20049;-70
2021/07/12 00:56:54;;;;;;;4.63;1.70;;;;;;;;;;5074770;28;20518;-70
2021/07/12 00:59:24;;;;;;;3.00;1.35;;;;;;;;;;5074522;28;20044;-70
2021/07/12 01:01:52;;;;;;;2.05;1.30;;;;;;;;;;5072236;28;20053;-70
2021/07/12 01:04:18;;;;;;;2.17;1.45;;;;;;;;;;5058535;28;20045;-71
2021/07/12 01:06:45;;;;;;;2.53;1.52;;;;;;;;;;5068319;28;20071;-71
2021/07/12 01:09:11;;;;;;;3.85;1.80;;;;;;;;;;5065337;28;20486;-70
2021/07/12 01:11:42;;;;;;;5.00;1.85;;;;;;;;;;5074068;28;20059;-70
2021/07/12 01:14:13;;;;;;;2.78;1.30;;;;;;;;;;5073442;28;20048;-70
2021/07/12 01:16:55;;;;;;;3.83;1.60;;;;;;;;;;5073322;28;20063;-70
2021/07/12 01:19:50;;;;;;;2.17;1.50;;;;;;;;;;5074224;28;20052;-70
2021/07/12 01:22:36;;;;;;;2.60;1.70;;;;;;;;;;5074401;28;20086;-70
2021/07/12 01:25:55;;;;;;;2.45;1.50;;;;;;;;;;5074416;28;20716;-70
2021/07/12 01:29:00;;;;;;;1.40;1.10;;;;;;;;;;5074612;28;20057;-71
2021/07/12 01:32:08;;;;;;;1.83;1.17;;;;;;;;;;5055426;28;20400;-70
2021/07/12 01:34:40;;;;;;;2.00;1.27;;;;;;;;;;5073780;28;20045;-70
2021/07/12 01:37:13;;;;;;;2.17;1.52;;;;;;;;;;5073843;28;20044;-70
2021/07/12 01:39:44;;;;;;;3.42;1.10;;;;;;;;;;5073817;28;20052;-70
2021/07/12 01:42:15;;;;;;;2.67;1.63;;;;;;;;;;5054859;28;20045;-70
2021/07/12 01:44:46;;;;;;;3.40;1.70;;;;;;;;;;5054468;28;20049;-70
2021/07/12 01:47:15;;;;;;;2.25;1.60;;;;;;;;;;5053713;28;20406;-70
2021/07/12 01:49:49;;;;;;;2.85;1.13;;;;;;;;;;5057654;28;20044;-70
2021/07/12 01:52:19;;;;;;;3.65;1.40;;;;;;;;;;5073848;28;20049;-70
2021/07/12 01:54:51;;;;;;;1.90;1.30;;;;;;;;;;5073063;28;20048;-70
2021/07/12 01:57:23;;;;;;;2.85;1.50;;;;;;;;;;5071793;28;20056;-70
2021/07/12 01:59:53;;;;;;;1.85;1.10;;;;;;;;;;5072132;28;20136;-70
2021/07/12 02:02:20;;;;;;;2.80;1.38;;;;;;;;;;5072135;28;20080;-70
2021/07/12 02:04:50;;;;;;;4.22;1.42;;;;;;;;;;5072618;28;20487;-71
2021/07/12 02:07:17;;;;;;;2.30;1.38;;;;;;;;;;5072729;28;20055;-70
2021/07/12 02:09:45;;;;;;;1.80;1.20;;;;;;;;;;5071938;28;20044;-70
2021/07/12 02:12:12;;;;;;;4.35;1.40;;;;;;;;;;5072785;28;20060;-70
2021/07/12 02:14:39;;;;;;;3.45;1.38;;;;;;;;;;5073835;28;20055;-71
2021/07/12 02:17:07;;;;;;;4.68;1.73;;;;;;;;;;5072308;28;20051;-70
2021/07/12 02:19:34;;;;;;;2.97;1.40;;;;;;;;;;5064609;28;20063;-70
2021/07/12 02:22:03;;;;;;;4.43;1.65;;;;;;;;;;5073175;28;20384;-70
2021/07/12 02:24:31;;;;;;;2.22;1.30;;;;;;;;;;5072583;28;20075;-70
2021/07/12 02:26:58;;;;;;;2.92;1.60;;;;;;;;;;5073028;28;20040;-70
2021/07/12 02:29:25;;;;;;;2.30;1.30;;;;;;;;;;5072202;28;20094;-70
2021/07/12 02:31:53;;;;;;;3.65;1.60;;;;;;;;;;5072018;28;20059;-71
2021/07/12 02:34:21;;;;;;;3.75;1.77;;;;;;;;;;5072283;28;20056;-70
2021/07/12 02:36:48;;;;;;;2.55;1.60;;;;;;;;;;5064322;28;20055;-71
2021/07/12 02:39:16;;;;;;;2.80;1.50;;;;;;;;;;5063927;28;20040;-70
2021/07/12 02:41:43;;;;;;;2.25;1.38;;;;;;;;;;5071809;28;20056;-71
2021/07/12 02:44:12;;;;;;;1.92;1.38;;;;;;;;;;5072374;28;20048;-71
2021/07/12 02:46:40;;;;;;;2.58;1.45;;;;;;;;;;5071863;28;20048;-71
2021/07/12 02:49:06;;;;;;;1.80;1.10;;;;;;;;;;5072651;28;20052;-70
2021/07/12 02:51:36;;;;;;;2.22;1.50;;;;;;;;;;5071905;28;20052;-70
2021/07/12 02:54:05;;;;;;;2.30;1.75;;;;;;;;;;5071819;28;20055;-70
2021/07/12 02:56:33;;;;;;;2.05;1.35;;;;;;;;;;5071784;28;20044;-71
2021/07/12 02:58:59;;;;;;;2.65;1.38;;;;;;;;;;5071766;28;20058;-71
2021/07/12 03:01:26;;;;;;;2.25;1.50;;;;;;;;;;5071557;28;20053;-71
2021/07/12 03:03:54;;;;;;;3.33;1.50;;;;;;;;;;5071890;28;20056;-71
2021/07/12 03:06:22;;;;;;;2.45;1.33;;;;;;;;;;5071191;28;20044;-71
2021/07/12 03:08:55;;;;;;;4.05;1.70;;;;;;;;;;5071592;28;20640;-71
2021/07/12 03:11:25;;;;;;;1.73;1.10;;;;;;;;;;5070838;28;20473;-71
2021/07/12 03:13:57;;;;;;;2.42;1.63;;;;;;;;;;5071147;28;20509;-71
2021/07/12 03:16:26;;;;;;;1.77;1.20;;;;;;;;;;5070679;28;20044;-70
2021/07/12 03:18:56;;;;;;;1.92;1.20;;;;;;;;;;5070722;28;20055;-70
2021/07/12 03:21:24;;;;;;;3.22;1.55;;;;;;;;;;5069312;28;20056;-70
2021/07/12 03:23:51;;;;;;;3.83;1.90;;;;;;;;;;5065467;28;20048;-70
2021/07/12 03:26:20;;;;;;;5.28;1.50;;;;;;;;;;5052017;28;20045;-70
2021/07/12 03:28:49;;;;;;;5.45;1.75;;;;;;;;;;5070650;28;20118;-70
2021/07/12 03:31:21;;;;;;;5.45;2.17;;;;;;;;;;5069961;28;20048;-70
2021/07/12 03:33:48;;;;;;;2.63;1.50;;;;;;;;;;5070131;28;20064;-70
2021/07/12 03:36:15;;;;;;;4.35;1.50;;;;;;;;;;5070173;28;20052;-70
2021/07/12 03:38:41;;;;;;;3.85;2.10;;;;;;;;;;5070848;28;20050;-70
2021/07/12 03:41:08;;;;;;;4.20;1.90;;;;;;;;;;5072805;28;20063;-70
2021/07/12 03:43:35;;;;;;;3.70;2.10;;;;;;;;;;5074556;28;20044;-71
2021/07/12 03:46:02;;;;;;;3.60;1.75;;;;;;;;;;5074851;28;20044;-70
2021/07/12 03:48:38;;;;;;;3.17;1.83;;;;;;;;;;5074722;28;20082;-70
2021/07/12 03:51:06;;;;;;;3.13;1.90;;;;;;;;;;5074808;28;20400;-71
2021/07/12 03:53:33;;;;;;;3.13;1.80;;;;;;;;;;5074737;28;20504;-70
2021/07/12 03:56:00;;;;;;;3.25;2.08;;;;;;;;;;5074679;28;20054;-70
2021/07/12 03:58:26;;;;;;;3.38;1.58;;;;;;;;;;5074461;28;20381;-70
2021/07/12 04:00:53;;;;;;;2.47;1.52;;;;;;;;;;5074034;28;20499;-70
2021/07/12 04:03:19;;;;;;;5.45;1.90;;;;;;;;;;5074279;28;20049;-70
2021/07/12 04:05:47;;;;;;;2.70;1.67;;;;;;;;;;5074409;28;20051;-70
2021/07/12 04:08:14;;;;;;;3.08;1.50;;;;;;;;;;5074114;28;20424;-70
2021/07/12 04:10:40;;;;;;;3.60;1.73;;;;;;;;;;5073766;28;20051;-70
2021/07/12 04:13:08;;;;;;;5.05;2.10;;;;;;;;;;5073711;28;20052;-69
2021/07/12 04:15:35;;;;;;;3.38;1.80;;;;;;;;;;5073771;28;20128;-69
2021/07/12 04:18:01;;;;;;;2.88;1.63;;;;;;;;;;5073871;28;20113;-70
2021/07/12 04:20:28;;;;;;;3.95;2.05;;;;;;;;;;5073994;28;20067;-70
2021/07/12 04:22:56;;;;;;;3.03;1.40;;;;;;;;;;5074518;28;20052;-70
2021/07/12 04:25:23;;;;;;;3.50;1.75;;;;;;;;;;5074581;28;20052;-70
2021/07/12 04:27:49;;;;;;;4.22;2.28;;;;;;;;;;5073730;28;20400;-70
2021/07/12 04:30:17;;;;;;;4.25;2.40;;;;;;;;;;5073960;28;20044;-70
2021/07/12 04:32:44;;;;;;;3.28;1.90;;;;;;;;;;5074583;28;20462;-70
2021/07/12 04:35:12;;;;;;;3.00;1.83;;;;;;;;;;5073305;28;20048;-70
2021/07/12 04:37:38;;;;;;;4.30;1.98;;;;;;;;;;5073818;28;20123;-70
2021/07/12 04:40:08;;;;;;;4.57;2.15;;;;;;;;;;5073628;28;20048;-70
2021/07/12 04:42:34;;;;;;;3.53;2.10;;;;;;;;;;5074174;28;20059;-70
2021/07/12 04:45:02;;;;;;;3.78;2.30;;;;;;;;;;5073718;28;20045;-70
2021/07/12 04:47:28;;;;;;;3.58;1.98;;;;;;;;;;5074186;28;20098;-70
2021/07/12 04:49:55;;;;;;;6.95;2.70;;;;;;;;;;5074142;28;20393;-70
2021/07/12 04:52:21;;;;;;;3.53;2.08;;;;;;;;;;5072805;28;20457;-70
2021/07/12 04:54:48;;;;;;;4.50;2.72;;;;;;;;;;5073978;28;20052;-70
2021/07/12 04:57:16;;;;;;;3.80;2.50;;;;;;;;;;5073604;28;20041;-70
2021/07/12 04:59:42;;;;;;;4.43;2.80;;;;;;;;;;5074248;28;20048;-70
2021/07/12 05:02:10;;;;;;;6.88;3.88;;;;;;;;;;5073669;28;20101;-70
2021/07/12 05:04:37;;;;;;;7.97;4.85;;;;;;;;;;5072992;28;20052;-70
2021/07/12 05:07:05;;;;;;;9.13;5.90;;;;;;;;;;5073068;28;20047;-71
2021/07/12 05:09:32;;;;;;;9.73;5.10;;;;;;;;;;5073508;28;20474;-70
2021/07/12 05:11:59;;;;;;;9.60;7.13;;;;;;;;;;5073319;28;20044;-70
2021/07/12 05:14:27;;;;;;;9.82;5.63;;;;;;;;;;5073410;28;20044;-70
2021/07/12 05:16:54;;;;;;;9.35;6.07;;;;;;;;;;5073281;28;20041;-70
2021/07/12 05:19:21;;;;;;;9.45;5.93;;;;;;;;;;5072992;28;20048;-70
2021/07/12 05:21:47;;;;;;;7.78;5.30;;;;;;;;;;5073004;28;20074;-70
2021/07/12 05:24:14;;;;;;;8.65;6.07;;;;;;;;;;5073378;28;20059;-69
2021/07/12 05:26:41;;;;;;;10.55;7.60;;;;;;;;;;5072452;28;20566;-70
2021/07/12 05:29:07;;;;;;;7.90;5.97;;;;;;;;;;5072996;28;20066;-70
2021/07/12 05:31:35;;;;;;;6.70;5.85;;;;;;;;;;5073013;28;20503;-70
2021/07/12 05:34:02;;;;;;;9.90;5.65;;;;;;;;;;5072949;28;20048;-70
2021/07/12 05:36:28;;;;;;;8.57;6.15;;;;;;;;;;5072879;28;20401;-70
2021/07/12 05:38:55;;;;;;;6.35;5.13;;;;;;;;;;5073186;28;20055;-70
2021/07/12 05:41:21;;;;;;;7.18;5.25;;;;;;;;;;5072809;28;20044;-70
2021/07/12 05:43:48;;;;;;;5.80;4.32;;;;;;;;;;5072469;28;20056;-70
2021/07/12 05:46:14;;;;;;;7.60;5.82;;;;;;;;;;5073331;28;20501;-70
2021/07/12 05:48:42;;;;;;;5.85;4.63;;;;;;;;;;5072760;28;20049;-70
2021/07/12 05:51:09;;;;;;;7.07;5.10;;;;;;;;;;5072228;28;20046;-70
2021/07/12 05:53:37;;;;;;;6.00;4.82;;;;;;;;;;5072153;28;20045;-70
2021/07/12 05:56:03;;;;;;;8.57;5.13;;;;;;;;;;5072603;28;20055;-70
2021/07/12 05:58:30;;;;;;;7.60;5.45;;;;;;;;;;5072330;28;20497;-70
2021/07/12 06:00:57;;;;;;;8.07;4.82;;;;;;;;;;5072895;28;20044;-70
2021/07/12 06:03:23;;;;;;;5.32;4.55;;;;;;;;;;5072191;28;20690;-70
2021/07/12 06:05:51;;;;;;;5.47;4.10;;;;;;;;;;5072565;28;20131;-70
2021/07/12 06:08:18;;;;;;;5.35;4.28;;;;;;;;;;5072326;28;20055;-70
2021/07/12 06:10:44;;;;;;;5.45;4.18;;;;;;;;;;5071943;28;20051;-70
2021/07/12 06:13:11;;;;;;;6.43;3.83;;;;;;;;;;5072581;28;20055;-70
2021/07/12 06:15:39;;;;;;;6.05;4.00;;;;;;;;;;5072469;28;20055;-70
2021/07/12 06:18:11;;;;;;;4.75;3.40;;;;;;;;;;5072554;28;20527;-70
2021/07/12 06:20:38;;;;;;;4.65;3.30;;;;;;;;;;5072283;28;20049;-70
2021/07/12 06:23:06;;;;;;;7.07;4.15;;;;;;;;;;5071839;28;20049;-70
2021/07/12 06:25:32;;;;;;;4.35;3.35;;;;;;;;;;5071963;28;20059;-70
2021/07/12 06:27:59;;;;;;;4.80;3.47;;;;;;;;;;5072390;28;20052;-70
2021/07/12 06:30:25;;;;;;;4.68;3.47;;;;;;;;;;5072085;28;20056;-70
2021/07/12 06:32:52;;;;;;;3.90;3.08;;;;;;;;;;5072445;28;20511;-70
2021/07/12 06:35:18;;;;;;;5.68;4.20;;;;;;;;;;5071615;28;20056;-69
2021/07/12 06:37:45;;;;;;;5.72;3.42;;;;;;;;;;5072149;28;20056;-70
2021/07/12 06:40:14;;;;;;;6.13;3.08;;;;;;;;;;5072007;28;20053;-70
2021/07/12 06:42:40;;;;;;;5.53;3.17;;;;;;;;;;5071963;28;20044;-70
2021/07/12 06:45:08;;;;;;;4.68;3.55;;;;;;;;;;5071765;28;20048;-69
2021/07/12 06:47:35;;;;;;;5.25;3.28;;;;;;;;;;5070930;28;20049;-69
2021/07/12 06:50:01;;;;;;;4.47;3.45;;;;;;;;;;5058401;28;20049;-70
2021/07/12 06:52:28;;;;;;;4.75;3.55;;;;;;;;;;5071655;28;20048;-70
2021/07/12 06:54:54;;;;;;;4.80;3.67;;;;;;;;;;5071620;28;20481;-70
2021/07/12 06:57:22;;;;;;;4.70;3.30;;;;;;;;;;5071602;28;20045;-70
2021/07/12 06:59:50;;;;;;;4.07;2.95;;;;;;;;;;5072572;28;20147;-70
2021/07/12 07:02:17;;;;;;;4.00;2.90;;;;;;;;;;5072649;28;20653;-70
2021/07/12 07:04:43;;;;;;;3.67;2.55;;;;;;;;;;5072582;28;20424;-71
2021/07/12 07:07:10;;;;;;;4.85;3.67;;;;;;;;;;5072539;28;20045;-70
2021/07/12 07:09:36;;;;;;;4.38;3.25;;;;;;;;;;5072379;28;20561;-70
2021/07/12 07:12:03;;;;;;;5.40;2.90;;;;;;;;;;5071986;28;20053;-70
2021/07/12 07:14:31;;;;;;;3.45;2.70;;;;;;;;;;5073074;28;20044;-70
2021/07/12 07:16:57;;;;;;;4.13;3.15;;;;;;;;;;5076326;28;20048;-70
2021/07/12 07:19:24;;;;;;;3.67;2.75;;;;;;;;;;5076557;28;20477;-70
2021/07/12 07:21:54;;;;;;;4.07;2.65;;;;;;;;;;5075701;28;20048;-70
2021/07/12 07:24:21;;;;;;;4.22;2.90;;;;;;;;;;5076135;28;20048;-70
2021/07/12 07:26:48;;;;;;;5.30;2.63;;;;;;;;;;5075580;28;20055;-70
2021/07/12 07:29:15;;;;;;;3.40;2.20;;;;;;;;;;5075647;28;20059;-70
2021/07/12 07:31:43;;;;;;;3.40;2.65;;;;;;;;;;5075561;28;20063;-70
2021/07/12 07:34:10;;;;;;;3.65;2.38;;;;;;;;;;5076345;28;20044;-70
2021/07/12 07:36:38;;;;;;;4.28;2.78;;;;;;;;;;5076299;28;20474;-70
2021/07/12 07:39:06;;;;;;;4.15;2.92;;;;;;;;;;5075783;28;20040;-70
2021/07/12 07:41:33;;;;;;;3.70;2.65;;;;;;;;;;5075385;28;20052;-70
2021/07/12 07:44:00;;;;;;;4.28;2.88;;;;;;;;;;5075552;28;20060;-70
2021/07/12 07:46:26;;;;;;;4.07;2.80;;;;;;;;;;5075773;28;20059;-70
2021/07/12 07:48:54;;;;;;;3.63;2.78;;;;;;;;;;5073738;28;20049;-71
2021/07/12 07:51:20;;;;;;;5.07;2.40;;;;;;;;;;5066228;28;20048;-70
2021/07/12 07:53:47;;;;;;;3.00;2.05;;;;;;;;;;5074665;28;20055;-70
2021/07/12 07:56:13;;;;;;;4.07;2.30;;;;;;;;;;5074075;28;20044;-71
2021/07/12 07:58:40;;;;;;;6.00;2.15;;;;;;;;;;5074498;28;20051;-71
2021/07/12 08:01:06;;;;;;;3.72;2.50;;;;;;;;;;5075499;28;20044;-70
2021/07/12 08:03:33;;;;;;;2.88;1.90;;;;;;;;;;5075483;28;20053;-70
2021/07/12 08:06:01;;;;;;;2.45;1.55;;;;;;;;;;5075319;28;20048;-71
2021/07/12 08:08:27;;;;;;;2.20;1.45;;;;;;;;;;5075347;28;20055;-70
2021/07/12 08:10:54;;;;;;;2.42;1.63;;;;;;;;;;5074935;28;20045;-70
2021/07/12 08:13:20;;;;;;;2.97;1.38;;;;;;;;;;5075550;28;20048;-70
2021/07/12 08:15:47;;;;;;;2.03;1.38;;;;;;;;;;5075862;28;20060;-70
2021/07/12 08:18:14;;;;;;;2.20;1.48;;;;;;;;;;5075122;28;20045;-70
2021/07/12 08:20:45;;;;;;;3.40;1.30;;;;;;;;;;5074462;28;20045;-70
2021/07/12 08:23:13;;;;;;;2.17;1.25;;;;;;;;;;5074898;28;20144;-70
2021/07/12 08:25:40;;;;;;;2.72;1.52;;;;;;;;;;5069628;28;20057;-70
2021/07/12 08:28:07;;;;;;;2.50;1.50;;;;;;;;;;5072659;28;20135;-71
2021/07/12 08:30:34;;;;;;;1.65;1.17;;;;;;;;;;5067392;28;20052;-70
2021/07/12 08:33:00;;;;;;;2.13;1.25;;;;;;;;;;5074406;28;20068;-70
2021/07/12 08:35:27;;;;;;;2.65;1.13;;;;;;;;;;5074472;28;20055;-70
2021/07/12 08:37:53;;;;;;;1.70;1.15;;;;;;;;;;5074277;28;20048;-71
2021/07/12 08:40:23;;;;;;;1.38;0.95;;;;;;;;;;5073594;28;20471;-71
2021/07/12 08:42:51;;;;;;;3.78;1.30;;;;;;;;;;5074160;28;20048;-69
2021/07/12 08:45:17;;;;;;;1.77;1.10;;;;;;;;;;5073689;28;20148;-70
2021/07/12 08:47:44;;;;;;;2.50;1.20;;;;;;;;;;5074394;28;20044;-70
2021/07/12 08:50:11;;;;;;;1.30;1.00;;;;;;;;;;5072071;28;20480;-70
2021/07/12 08:52:37;;;;;;;1.55;1.10;;;;;;;;;;5073540;28;20055;-69
2021/07/12 08:55:05;;;;;;;2.25;1.08;;;;;;;;;;5073539;28;20059;-69
2021/07/12 08:57:33;;;;;;;2.00;1.30;;;;;;;;;;5073883;28;20045;-69
2021/07/12 09:00:00;;;;;;;2.30;1.13;;;;;;;;;;5070555;28;20055;-70
2021/07/12 09:02:26;;;;;;;1.60;1.02;;;;;;;;;;5059084;28;20130;-70
2021/07/12 09:04:54;;;;;;;2.08;1.30;;;;;;;;;;5053786;28;20052;-70
2021/07/12 09:07:24;;;;;;;1.83;1.08;;;;;;;;;;5053554;28;20102;-70
2021/07/12 09:09:57;;;;;;;2.08;1.20;;;;;;;;;;5063759;28;20048;-70
2021/07/12 09:12:24;;;;;;;1.98;1.25;;;;;;;;;;5073573;28;20134;-70
2021/07/12 09:15:02;;;;;;;1.73;1.02;;;;;;;;;;5062739;28;20064;-70
2021/07/12 09:17:33;;;;;;;1.75;1.10;;;;;;;;;;5057199;28;20561;-70
2021/07/12 09:19:59;;;;;;;2.30;1.23;;;;;;;;;;5073004;28;20076;-70
2021/07/12 09:22:32;;;;;;;1.60;1.00;;;;;;;;;;5073762;28;20473;-71
2021/07/12 09:25:00;;;;;;;2.63;1.17;;;;;;;;;;5073416;28;20076;-70
2021/07/12 09:27:28;;;;;;;1.88;1.17;;;;;;;;;;5073188;28;20045;-70
2021/07/12 09:29:57;;;;;;;3.05;1.20;;;;;;;;;;5072830;28;20131;-70
2021/07/12 09:32:27;;;;;;;1.55;1.17;;;;;;;;;;5073031;28;20049;-71
2021/07/12 09:34:57;;;;;;;2.50;1.40;;;;;;;;;;5073224;28;20064;-70
2021/07/12 09:37:25;;;;;;;1.83;1.00;;;;;;;;;;5072074;28;20470;-71
2021/07/12 09:39:53;;;;;;;2.08;1.48;;;;;;;;;;5072974;28;20047;-71
2021/07/12 09:42:21;;;;;;;1.98;1.15;;;;;;;;;;5072537;28;20127;-70
2021/07/12 09:44:49;;;;;;;1.35;0.88;;;;;;;;;;5072886;28;20139;-70
2021/07/12 09:47:17;;;;;;;1.67;0.88;;;;;;;;;;5072488;28;20048;-70
2021/07/12 09:49:45;;;;;;;2.35;1.40;;;;;;;;;;5072668;28;20090;-70
2021/07/12 09:52:14;;;;;;;3.72;1.70;;;;;;;;;;5072620;28;20127;-69
2021/07/12 09:54:42;;;;;;;3.90;1.30;;;;;;;;;;5072745;28;20122;-70
2021/07/12 09:57:12;;;;;;;1.38;1.08;;;;;;;;;;5072739;28;20053;-71
2021/07/12 09:59:55;;;;;;;2.25;1.50;;;;;;;;;;5072115;28;20492;-71
2021/07/12 10:02:24;;;;;;;10.35;3.08;;;;;;;;;;5072144;28;20083;-71
2021/07/12 10:04:54;;;;;;;2.22;1.10;;;;;;;;;;5072576;28;20052;-71
2021/07/12 10:07:21;;;;;;;1.50;0.88;;;;;;;;;;5072513;28;20568;-71
2021/07/12 10:09:48;;;;;;;1.98;1.08;;;;;;;;;;5072657;28;20074;-71
2021/07/12 10:12:14;;;;;;;4.60;2.17;;;;;;;;;;5067297;28;20044;-72
2021/07/12 10:14:41;;;;;;;1.58;1.10;;;;;;;;;;5064264;28;20046;-71
2021/07/12 10:17:09;;;;;;;2.72;0.90;;;;;;;;;;5072685;28;20048;-71
2021/07/12 10:19:37;;;;;;;3.60;1.40;;;;;;;;;;5069282;28;20054;-70
2021/07/12 10:22:06;;;;;;;2.33;1.27;;;;;;;;;;5068213;28;20059;-69
2021/07/12 10:24:36;;;;;;;2.67;1.25;;;;;;;;;;5053889;28;20053;-69
2021/07/12 10:27:03;;;;;;;1.88;1.00;;;;;;;;;;5052597;28;20396;-69
2021/07/12 10:29:32;;;;;;;1.73;1.08;;;;;;;;;;5057276;28;20067;-69
2021/07/12 10:32:13;;;;;;;3.33;1.15;;;;;;;;;;5071200;28;20139;-69
2021/07/12 10:34:42;;;;;;;2.88;1.20;;;;;;;;;;5071799;28;20056;-70
2021/07/12 10:37:17;;;;;;;2.67;1.10;;;;;;;;;;5071923;28;20056;-70
2021/07/12 10:40:06;;;;;;;2.88;1.40;;;;;;;;;;5071484;28;20044;-70
2021/07/12 10:42:55;;;;;;;2.53;1.20;;;;;;;;;;5071842;28;20063;-70
2021/07/12 10:45:35;;;;;;;1.77;1.10;;;;;;;;;;5072345;28;20493;-69
2021/07/12 10:48:07;;;;;;;3.45;2.22;;;;;;;;;;5072094;28;20056;-69
2021/07/12 10:50:55;;;;;;;1.60;1.08;;;;;;;;;;5071501;28;20041;-69
2021/07/12 10:53:37;;;;;;;2.13;1.10;;;;;;;;;;5071873;28;20056;-69
2021/07/12 10:56:07;;;;;;;6.95;3.75;;;;;;;;;;5070551;28;20382;-69
2021/07/12 10:58:47;;;;;;;1.50;1.10;;;;;;;;;;5071683;28;20055;-69
2021/07/12 11:01:44;;;;;;;1.92;1.63;;;;;;;;;;5071737;28;20041;-69
2021/07/12 11:04:36;;;;;;;2.90;1.30;;;;;;;;;;5064997;28;20048;-70
2021/07/12 11:07:05;;;;;;;2.20;1.08;;;;;;;;;;5069485;28;20772;-70
2021/07/12 11:10:00;;;;;;;6.53;2.83;;;;;;;;;;5070908;28;20044;-70
2021/07/12 11:12:40;;;;;;;7.28;3.72;;;;;;;;;;5070114;28;20058;-70
2021/07/12 11:15:14;;;;;;;3.90;2.58;;;;;;;;;;5070208;28;20041;-70
2021/07/12 11:18:04;;;;;;;6.45;4.05;;;;;;;;;;5068809;28;20054;-70
2021/07/12 11:20:54;;;;;;;2.22;1.35;;;;;;;;;;5071361;28;20045;-71
2021/07/12 11:23:55;;;;;;;5.00;3.30;;;;;;;;;;5071773;28;20055;-70
2021/07/12 11:26:48;;;;;;;5.15;2.78;;;;;;;;;;5065067;28;20086;-70
2021/07/12 11:29:26;;;;;;;3.05;1.30;;;;;;;;;;5068293;28;20090;-70
2021/07/12 11:31:54;;;;;;;3.05;2.13;;;;;;;;;;5070287;28;20626;-70
2021/07/12 11:34:25;;;;;;;3.92;1.40;;;;;;;;;;5070527;28;20507;-70
2021/07/12 11:36:54;;;;;;;9.40;6.70;;;;;;;;;;5070737;28;20052;-70
2021/07/12 11:39:22;;;;;;;12.65;8.07;;;;;;;;;;5070634;28;20055;-70
2021/07/12 11:41:50;;;;;;;4.95;3.38;;;;;;;;;;5071074;28;20053;-70
2021/07/12 11:44:17;;;;;;;3.88;2.20;;;;;;;;;;5071738;28;20055;-70
2021/07/12 11:46:45;;;;;;;2.33;1.38;;;;;;;;;;5072015;28;20409;-70
2021/07/12 11:49:13;;;;;;;1.70;1.27;;;;;;;;;;5071864;28;20056;-70
2021/07/12 11:51:40;;;;;;;3.15;2.60;;;;;;;;;;5065176;28;20045;-70
2021/07/12 11:54:14;;;;;;;3.50;2.17;;;;;;;;;;5071338;28;20049;-70
2021/07/12 11:56:42;;;;;;;3.73;1.63;;;;;;;;;;5071901;28;20381;-70
2021/07/12 11:59:10;;;;;;;1.95;1.30;;;;;;;;;;5071218;28;20299;-70
2021/07/12 12:01:36;;;;;;;2.60;1.52;;;;;;;;;;5073972;28;20045;-70
2021/07/12 12:04:04;;;;;;;4.47;3.10;;;;;;;;;;5075615;28;20048;-70
2021/07/12 12:06:31;;;;;;;4.05;1.40;;;;;;;;;;5075045;28;20497;-70
2021/07/12 12:09:00;;;;;;;2.28;1.20;;;;;;;;;;5075465;28;20049;-69
2021/07/12 12:11:27;;;;;;;2.10;1.05;;;;;;;;;;5074902;28;20150;-69
2021/07/12 12:13:54;;;;;;;1.73;1.20;;;;;;;;;;5074692;28;20088;-69
2021/07/12 12:16:26;;;;;;;2.05;1.58;;;;;;;;;;5075012;28;20060;-70
2021/07/12 12:18:54;;;;;;;6.32;3.58;;;;;;;;;;5074916;28;20457;-70
2021/07/12 12:21:22;;;;;;;2.75;1.63;;;;;;;;;;5074231;28;20063;-70
2021/07/12 12:23:49;;;;;;;4.70;3.88;;;;;;;;;;5074589;28;20585;-70
2021/07/12 12:26:22;;;;;;;3.10;2.00;;;;;;;;;;5074800;28;20071;-69
2021/07/12 12:28:52;;;;;;;2.30;1.42;;;;;;;;;;5075031;28;20538;-69
2021/07/12 12:31:21;;;;;;;2.60;1.40;;;;;;;;;;5074457;28;20499;-69
2021/07/12 12:33:56;;;;;;;5.05;1.98;;;;;;;;;;5074916;28;20059;-70
2021/07/12 12:36:24;;;;;;;23.95;4.15;;;;;;;;;;5074381;28;20135;-70
2021/07/12 12:38:52;;;;;;;4.38;1.42;;;;;;;;;;5074430;28;20474;-69
2021/07/12 12:41:20;;;;;;;2.22;1.30;;;;;;;;;;5074898;28;20044;-71
2021/07/12 12:44:00;;;;;;;11.35;2.63;;;;;;;;;;5074718;28;20045;-69
2021/07/12 12:46:26;;;;;;;7.97;2.00;;;;;;;;;;5075132;28;20473;-69
2021/07/12 12:48:54;;;;;;;1.83;1.50;;;;;;;;;;5074920;28;20068;-69
2021/07/12 12:51:28;;;;;;;2.05;1.25;;;;;;;;;;5073993;28;20056;-69
2021/07/12 12:54:05;;;;;;;2.67;1.25;;;;;;;;;;5074699;28;20087;-69
2021/07/12 12:56:31;;;;;;;2.38;1.42;;;;;;;;;;5074312;28;20057;-69
2021/07/12 12:58:59;;;;;;;1.90;1.33;;;;;;;;;;5074148;28;20366;-69
2021/07/12 13:01:30;;;;;;;2.00;1.15;;;;;;;;;;5074041;28;20048;-69
2021/07/12 13:04:06;;;;;;;1.65;1.38;;;;;;;;;;5074459;28;20798;-69
2021/07/12 13:06:44;;;;;;;2.67;1.30;;;;;;;;;;5073536;28;20048;-69
2021/07/12 13:09:13;;;;;;;2.97;1.20;;;;;;;;;;5073918;28;20063;-69
2021/07/12 13:11:40;;;;;;;2.33;1.20;;;;;;;;;;5072494;28;20413;-69
2021/07/12 13:14:07;;;;;;;1.92;1.38;;;;;;;;;;5073454;28;20048;-69
2021/07/12 13:16:35;;;;;;;2.55;1.55;;;;;;;;;;5073735;28;20143;-69
2021/07/12 13:19:02;;;;;;;1.40;1.20;;;;;;;;;;5073933;28;20060;-69
2021/07/12 13:21:49;;;;;;;1.70;1.30;;;;;;;;;;5073752;28;20048;-69
2021/07/12 13:24:17;;;;;;;1.58;0.93;;;;;;;;;;5073554;28;20049;-69
2021/07/12 13:26:44;;;;;;;2.22;1.38;;;;;;;;;;5073624;28;20060;-69
2021/07/12 13:29:11;;;;;;;2.30;1.38;;;;;;;;;;5073669;28;20500;-69
2021/07/12 13:31:37;;;;;;;1.88;1.25;;;;;;;;;;5072685;28;20052;-69
2021/07/12 13:34:05;;;;;;;2.13;1.30;;;;;;;;;;5073193;28;20052;-69
2021/07/12 13:36:32;;;;;;;2.47;1.45;;;;;;;;;;5072779;28;20056;-70
2021/07/12 13:39:00;;;;;;;2.03;1.40;;;;;;;;;;5073047;28;20590;-69
2021/07/12 13:41:26;;;;;;;1.88;1.17;;;;;;;;;;5073265;28;20473;-69
2021/07/12 13:43:53;;;;;;;2.70;1.27;;;;;;;;;;5073407;28;20062;-70
2021/07/12 13:46:19;;;;;;;1.77;1.23;;;;;;;;;;5072970;28;20045;-69
2021/07/12 13:48:46;;;;;;;2.05;1.30;;;;;;;;;;5073317;28;20048;-69
2021/07/12 13:51:12;;;;;;;3.25;1.52;;;;;;;;;;5072736;28;20618;-69
2021/07/12 13:53:39;;;;;;;1.88;1.40;;;;;;;;;;5073039;28;20054;-69
2021/07/12 13:56:07;;;;;;;2.63;1.55;;;;;;;;;;5073039;28;20052;-68
2021/07/12 13:58:34;;;;;;;2.72;1.60;;;;;;;;;;5072732;28;20055;-69
2021/07/12 14:01:00;;;;;;;2.20;1.65;;;;;;;;;;5072893;28;20571;-69
2021/07/12 14:03:28;;;;;;;4.90;1.83;;;;;;;;;;5060872;28;20139;-69
2021/07/12 14:05:55;;;;;;;3.13;1.50;;;;;;;;;;5073020;28;20052;-69
2021/07/12 14:08:22;;;;;;;1.95;1.50;;;;;;;;;;5073114;28;20088;-69
2021/07/12 14:10:48;;;;;;;3.63;1.60;;;;;;;;;;5072212;28;20053;-69
2021/07/12 14:13:16;;;;;;;4.18;1.80;;;;;;;;;;5072507;28;20481;-69
2021/07/12 14:15:43;;;;;;;2.28;1.42;;;;;;;;;;5072257;28;20060;-69
2021/07/12 14:18:09;;;;;;;2.28;1.35;;;;;;;;;;5072346;28;20515;-71
2021/07/12 14:20:36;;;;;;;1.73;1.40;;;;;;;;;;5072344;28;20053;-71
2021/07/12 14:23:03;;;;;;;3.53;1.90;;;;;;;;;;5071769;28;20052;-70
2021/07/12 14:25:29;;;;;;;2.53;1.85;;;;;;;;;;5072442;28;20053;-70
2021/07/12 14:27:56;;;;;;;2.63;1.65;;;;;;;;;;5072743;28;20106;-69
2021/07/12 14:30:24;;;;;;;3.85;1.60;;;;;;;;;;5072409;28;20520;-69
2021/07/12 14:32:50;;;;;;;4.63;2.15;;;;;;;;;;5071607;28;20059;-69
2021/07/12 14:35:17;;;;;;;2.80;1.80;;;;;;;;;;5072371;28;20486;-70
2021/07/12 14:37:43;;;;;;;2.75;1.50;;;;;;;;;;5072333;28;20053;-69
2021/07/12 14:40:10;;;;;;;2.47;1.52;;;;;;;;;;5071746;28;20052;-69
2021/07/12 14:42:37;;;;;;;2.03;1.50;;;;;;;;;;5072367;28;20052;-69
2021/07/12 14:45:04;;;;;;;2.60;1.73;;;;;;;;;;5072241;28;20044;-70
2021/07/12 14:47:32;;;;;;;6.03;1.50;;;;;;;;;;5072334;28;20053;-69
2021/07/12 14:49:59;;;;;;;3.47;1.40;;;;;;;;;;5071991;28;20098;-69
2021/07/12 14:52:25;;;;;;;2.67;1.77;;;;;;;;;;5072095;28;20067;-70
2021/07/12 14:54:52;;;;;;;1.95;1.33;;;;;;;;;;5071943;28;20061;-72